createdAt,value
2019-01-30T00:02:24.122Z,16.93
2019-01-30T00:04:51.374Z,14.73
2019-01-30T00:07:18.693Z,13.33
2019-01-30T00:09:45.969Z,17.77
2019-01-30T00:12:13.218Z,15.87
2019-01-30T00:14:40.757Z,14.20
2019-01-30T00:17:08.006Z,16.70
2019-01-30T00:19:35.289Z,14.30
2019-01-30T00:22:02.535Z,12.60
2019-01-30T00:24:29.805Z,11.83
2019-01-30T00:26:57.090Z,16.53
2019-01-30T00:29:24.329Z,13.10
2019-01-30T00:31:51.611Z,13.20
2019-01-30T00:34:18.858Z,15.07
2019-01-30T00:36:46.138Z,12.40
2019-01-30T00:39:13.386Z,13.60
2019-01-30T00:41:40.663Z,12.87
2019-01-30T00:44:07.930Z,12.00
2019-01-30T00:46:35.481Z,11.30
2019-01-30T00:49:02.753Z,12.17
2019-01-30T00:51:29.998Z,14.53
2019-01-30T00:53:57.281Z,11.00
2019-01-30T00:56:24.525Z,8.00
2019-01-30T00:58:51.811Z,11.57
2019-01-30T01:01:19.078Z,10.77
2019-01-30T01:03:46.354Z,14.47
2019-01-30T01:06:13.634Z,10.17
2019-01-30T01:08:41.014Z,10.07
2019-01-30T01:11:08.257Z,9.10
2019-01-30T01:13:35.529Z,16.23
2019-01-30T01:16:02.779Z,10.00
2019-01-30T01:18:30.053Z,13.60
2019-01-30T01:20:57.325Z,10.20
2019-01-30T01:23:24.577Z,12.20
2019-01-30T01:25:51.849Z,13.50
2019-01-30T01:28:19.097Z,10.47
2019-01-30T01:30:46.380Z,11.10
2019-01-30T01:33:13.870Z,14.87
2019-01-30T01:35:41.153Z,12.37
2019-01-30T01:38:08.427Z,12.60
2019-01-30T01:40:35.706Z,12.97
2019-01-30T01:43:02.982Z,10.23
2019-01-30T01:45:30.578Z,14.97
2019-01-30T01:47:57.817Z,13.50
2019-01-30T01:50:25.361Z,13.33
2019-01-30T01:52:52.626Z,16.10
2019-01-30T01:55:20.161Z,14.00
2019-01-30T01:57:47.405Z,9.73
2019-01-30T02:00:15.849Z,12.00
2019-01-30T02:02:43.113Z,10.37
2019-01-30T02:05:11.910Z,14.60
2019-01-30T02:07:39.177Z,19.37
2019-01-30T02:10:07.958Z,9.97
2019-01-30T02:12:35.229Z,14.43
2019-01-30T02:15:02.730Z,12.67
2019-01-30T02:17:30.250Z,10.93
2019-01-30T02:19:57.513Z,10.17
2019-01-30T02:22:24.790Z,12.20
2019-01-30T02:24:52.055Z,12.47
2019-01-30T02:27:19.322Z,13.27
2019-01-30T02:29:46.565Z,11.97
2019-01-30T02:32:13.842Z,14.43
2019-01-30T02:34:41.179Z,10.43
2019-01-30T02:37:08.455Z,12.13
2019-01-30T02:39:35.956Z,11.80
2019-01-30T02:42:03.229Z,12.77
2019-01-30T02:44:30.473Z,12.07
2019-01-30T02:46:57.754Z,14.10
2019-01-30T02:49:25.001Z,12.30
2019-01-30T02:51:52.267Z,9.90
2019-01-30T02:54:19.783Z,12.80
2019-01-30T02:56:47.134Z,10.83
2019-01-30T02:59:14.637Z,11.80
2019-01-30T03:01:43.538Z,11.30
2019-01-30T03:04:10.790Z,12.77
2019-01-30T03:06:38.307Z,11.03
2019-01-30T03:09:06.975Z,12.30
2019-01-30T03:11:34.487Z,10.87
2019-01-30T03:14:01.998Z,11.57
2019-01-30T03:16:29.281Z,11.20
2019-01-30T03:18:56.784Z,13.10
2019-01-30T03:21:24.057Z,10.30
2019-01-30T03:23:51.349Z,11.10
2019-01-30T03:26:18.860Z,11.87
2019-01-30T03:28:46.111Z,14.23
2019-01-30T03:31:17.854Z,12.83
2019-01-30T03:33:42.346Z,12.47
2019-01-30T03:36:09.640Z,18.80
2019-01-30T03:38:36.950Z,12.77
2019-01-30T03:41:04.472Z,12.07
2019-01-30T03:43:31.797Z,13.03
2019-01-30T03:45:59.069Z,14.73
2019-01-30T03:48:26.350Z,13.00
2019-01-30T03:50:53.617Z,12.53
2019-01-30T03:53:20.871Z,15.73
2019-01-30T03:55:48.158Z,13.50
2019-01-30T03:58:15.411Z,14.50
2019-01-30T04:00:42.657Z,10.23
2019-01-30T04:03:09.935Z,12.07
2019-01-30T04:05:37.466Z,13.30
2019-01-30T04:08:04.805Z,10.40
2019-01-30T04:10:32.053Z,13.07
2019-01-30T04:12:59.326Z,10.40
2019-01-30T04:15:26.880Z,12.90
2019-01-30T04:17:54.157Z,10.83
2019-01-30T04:20:21.468Z,11.50
2019-01-30T04:22:48.751Z,14.63
2019-01-30T04:25:16.000Z,14.93
2019-01-30T04:27:43.273Z,16.03
2019-01-30T04:30:17.677Z,10.27
2019-01-30T04:32:44.963Z,16.00
2019-01-30T04:35:12.564Z,12.40
2019-01-30T04:37:39.814Z,10.93
2019-01-30T04:40:08.866Z,13.43
2019-01-30T04:42:36.150Z,16.40
2019-01-30T04:45:05.049Z,17.30
2019-01-30T04:47:32.382Z,15.03
2019-01-30T04:49:59.651Z,13.33
2019-01-30T04:52:26.894Z,12.80
2019-01-30T04:54:54.254Z,11.80
2019-01-30T04:57:21.527Z,10.90
2019-01-30T04:59:49.039Z,17.43
2019-01-30T05:02:16.574Z,10.73
2019-01-30T05:04:43.832Z,12.40
2019-01-30T05:07:11.110Z,12.53
2019-01-30T05:09:38.611Z,15.50
2019-01-30T05:12:05.957Z,12.10
2019-01-30T05:14:33.214Z,11.73
2019-01-30T05:17:00.565Z,13.00
2019-01-30T05:19:27.846Z,12.27
2019-01-30T05:21:55.350Z,13.40
2019-01-30T05:24:22.850Z,11.13
2019-01-30T05:26:50.139Z,15.00
2019-01-30T05:29:17.461Z,14.10
2019-01-30T05:31:44.709Z,14.60
2019-01-30T05:34:11.986Z,16.40
2019-01-30T05:36:39.262Z,16.03
2019-01-30T05:39:07.564Z,13.17
2019-01-30T05:41:35.061Z,14.30
2019-01-30T05:44:02.587Z,13.23
2019-01-30T05:46:29.838Z,15.23
2019-01-30T05:48:57.102Z,12.43
2019-01-30T05:51:24.378Z,16.13
2019-01-30T05:53:51.914Z,11.90
2019-01-30T05:56:20.295Z,14.60
2019-01-30T05:58:47.648Z,13.13
2019-01-30T06:01:15.222Z,12.33
2019-01-30T06:03:42.467Z,12.73
2019-01-30T06:06:09.761Z,14.50
2019-01-30T06:08:37.014Z,16.77
2019-01-30T06:11:04.336Z,13.70
2019-01-30T06:13:31.683Z,17.00
2019-01-30T06:15:59.013Z,15.97
2019-01-30T06:18:26.291Z,18.03
2019-01-30T06:20:53.573Z,15.30
2019-01-30T06:23:20.927Z,13.40
2019-01-30T06:25:48.333Z,16.10
2019-01-30T06:28:15.583Z,15.63
2019-01-30T06:30:43.296Z,15.03
2019-01-30T06:33:10.582Z,15.60
2019-01-30T06:35:38.123Z,17.27
2019-01-30T06:38:05.627Z,16.00
2019-01-30T06:40:33.242Z,14.93
2019-01-30T06:43:02.567Z,17.43
2019-01-30T06:45:29.821Z,17.13
2019-01-30T06:47:57.096Z,16.80
2019-01-30T06:50:24.377Z,15.20
2019-01-30T06:52:51.705Z,17.07
2019-01-30T06:55:18.999Z,15.13
2019-01-30T06:57:46.319Z,16.33
2019-01-30T07:00:15.117Z,18.00
2019-01-30T07:02:42.455Z,16.60
2019-01-30T07:05:09.809Z,17.70
2019-01-30T07:07:37.213Z,17.30
2019-01-30T07:10:09.011Z,27.30
2019-01-30T07:12:36.297Z,15.60
2019-01-30T07:15:04.774Z,21.07
2019-01-30T07:17:32.048Z,18.60
2019-01-30T07:19:59.338Z,16.40
2019-01-30T07:22:26.585Z,14.60
2019-01-30T07:24:53.907Z,20.47
2019-01-30T07:27:21.271Z,16.53
2019-01-30T07:29:48.542Z,16.93
2019-01-30T07:32:15.834Z,21.30
2019-01-30T07:34:43.097Z,18.57
2019-01-30T07:37:10.614Z,18.27
2019-01-30T07:39:37.956Z,14.73
2019-01-30T07:42:05.227Z,18.07
2019-01-30T07:44:32.593Z,18.37
2019-01-30T07:46:59.868Z,16.40
2019-01-30T07:49:27.114Z,16.50
2019-01-30T07:51:54.386Z,21.10
2019-01-30T07:54:21.814Z,18.93
2019-01-30T07:56:49.063Z,16.67
2019-01-30T07:59:16.346Z,19.33
2019-01-30T08:01:43.691Z,15.77
2019-01-30T08:04:10.942Z,18.60
2019-01-30T08:06:38.229Z,20.60
2019-01-30T08:09:07.178Z,21.10
2019-01-30T08:11:34.501Z,17.63
2019-01-30T08:14:02.088Z,18.00
2019-01-30T08:16:29.389Z,19.23
2019-01-30T08:18:56.658Z,15.97
2019-01-30T08:21:23.938Z,18.53
2019-01-30T08:23:51.205Z,18.73
2019-01-30T08:26:18.822Z,16.00
2019-01-30T08:28:46.353Z,21.10
2019-01-30T08:31:14.112Z,21.87
2019-01-30T08:33:41.706Z,16.60
2019-01-30T08:36:09.057Z,17.07
2019-01-30T08:38:36.309Z,19.97
2019-01-30T08:41:03.661Z,18.17
2019-01-30T08:43:31.165Z,16.80
2019-01-30T08:45:58.422Z,16.63
2019-01-30T08:48:28.540Z,14.50
2019-01-30T08:50:54.962Z,15.43
2019-01-30T08:53:22.287Z,17.20
2019-01-30T08:55:50.161Z,15.83
2019-01-30T08:58:17.441Z,18.57
2019-01-30T09:00:44.782Z,16.00
2019-01-30T09:03:14.868Z,17.20
2019-01-30T09:05:41.362Z,15.40
2019-01-30T09:08:08.983Z,18.23
2019-01-30T09:10:36.355Z,18.00
2019-01-30T09:13:03.629Z,18.57
2019-01-30T09:15:31.174Z,17.87
2019-01-30T09:17:58.521Z,20.53
2019-01-30T09:20:26.850Z,18.43
2019-01-30T09:22:54.252Z,16.10
2019-01-30T09:25:22.503Z,18.43
2019-01-30T09:27:50.050Z,19.03
2019-01-30T09:30:19.078Z,16.83
2019-01-30T09:32:46.525Z,19.33
2019-01-30T09:35:13.990Z,17.00
2019-01-30T09:37:41.282Z,19.10
2019-01-30T09:40:09.742Z,16.30
2019-01-30T09:42:37.035Z,19.90
2019-01-30T09:45:06.010Z,18.30
2019-01-30T09:47:33.532Z,16.00
2019-01-30T09:50:00.869Z,18.27
2019-01-30T09:52:28.173Z,19.80
2019-01-30T09:54:55.692Z,14.80
2019-01-30T09:57:22.948Z,17.83
2019-01-30T09:59:50.482Z,18.77
2019-01-30T10:02:17.886Z,19.00
2019-01-30T10:04:45.389Z,16.50
2019-01-30T10:07:12.917Z,17.27
2019-01-30T10:09:40.253Z,17.27
2019-01-30T10:12:07.590Z,17.27
2019-01-30T10:14:35.118Z,18.60
2019-01-30T10:17:02.473Z,14.50
2019-01-30T10:19:29.734Z,18.90
2019-01-30T10:21:57.018Z,17.60
2019-01-30T10:24:24.342Z,16.10
2019-01-30T10:26:51.677Z,17.73
2019-01-30T10:29:18.962Z,15.53
2019-01-30T10:31:46.207Z,20.93
2019-01-30T10:34:13.646Z,18.40
2019-01-30T10:36:40.926Z,20.90
2019-01-30T10:39:08.651Z,14.53
2019-01-30T10:41:35.922Z,17.77
2019-01-30T10:44:03.500Z,16.10
2019-01-30T10:46:30.806Z,19.27
2019-01-30T10:48:58.359Z,18.47
2019-01-30T10:51:25.705Z,18.43
2019-01-30T10:53:53.065Z,16.73
2019-01-30T10:56:20.328Z,18.93
2019-01-30T10:58:47.594Z,16.70
2019-01-30T11:01:14.845Z,18.43
2019-01-30T11:03:42.473Z,20.93
2019-01-30T11:06:09.726Z,15.70
2019-01-30T11:08:37.016Z,15.10
2019-01-30T11:11:07.856Z,14.77
2019-01-30T11:13:33.393Z,11.97
2019-01-30T11:16:01.413Z,16.63
2019-01-30T11:18:28.690Z,16.30
2019-01-30T11:20:55.955Z,15.70
2019-01-30T11:23:23.242Z,19.33
2019-01-30T11:25:50.564Z,16.50
2019-01-30T11:28:17.918Z,14.37
2019-01-30T11:30:45.174Z,15.60
2019-01-30T11:33:12.465Z,17.60
2019-01-30T11:35:40.056Z,18.50
2019-01-30T11:38:09.059Z,20.00
2019-01-30T11:40:37.016Z,15.00
2019-01-30T11:43:04.354Z,13.57
2019-01-30T11:45:41.899Z,14.53
2019-01-30T11:48:09.218Z,13.70
2019-01-30T11:50:36.843Z,15.43
2019-01-30T11:53:04.620Z,12.57
2019-01-30T11:55:32.280Z,14.40
2019-01-30T11:57:59.561Z,12.57
2019-01-30T12:00:30.397Z,13.00
2019-01-30T12:02:57.646Z,11.77
2019-01-30T12:05:24.981Z,12.80
2019-01-30T12:07:52.334Z,11.73
2019-01-30T12:10:21.173Z,12.00
2019-01-30T12:12:48.423Z,13.07
2019-01-30T12:15:22.501Z,12.33
2019-01-30T12:17:49.817Z,10.03
2019-01-30T12:20:17.438Z,12.57
2019-01-30T12:22:44.863Z,13.90
2019-01-30T12:25:13.646Z,10.60
2019-01-30T12:27:40.977Z,10.97
2019-01-30T12:30:09.806Z,10.83
2019-01-30T12:32:37.126Z,11.70
2019-01-30T12:35:05.845Z,10.80
2019-01-30T12:37:33.121Z,12.03
2019-01-30T12:40:00.389Z,11.90
2019-01-30T12:42:27.745Z,12.00
2019-01-30T12:44:55.124Z,10.83
2019-01-30T12:47:22.698Z,10.93
2019-01-30T12:49:49.974Z,12.43
2019-01-30T12:52:17.242Z,10.00
2019-01-30T12:54:44.490Z,8.63
2019-01-30T12:57:11.764Z,10.97
2019-01-30T12:59:39.009Z,11.50
2019-01-30T13:02:06.287Z,12.20
2019-01-30T13:04:38.896Z,11.30
2019-01-30T13:07:02.532Z,12.63
2019-01-30T13:09:30.037Z,10.70
2019-01-30T13:11:57.576Z,9.07
2019-01-30T13:14:24.934Z,7.33
2019-01-30T13:16:52.508Z,8.23
2019-01-30T13:19:19.746Z,9.33
2019-01-30T13:21:47.022Z,10.00
2019-01-30T13:24:14.272Z,7.03
2019-01-30T13:26:41.538Z,9.20
2019-01-30T13:29:09.033Z,7.23
2019-01-30T13:31:36.595Z,7.83
2019-01-30T13:34:03.941Z,8.30
2019-01-30T13:36:31.209Z,9.20
2019-01-30T13:38:58.744Z,8.30
2019-01-30T13:41:25.986Z,7.07
2019-01-30T13:43:53.256Z,7.43
2019-01-30T13:46:20.497Z,7.67
2019-01-30T13:48:47.800Z,4.83
2019-01-30T13:51:15.137Z,7.40
2019-01-30T13:53:42.477Z,10.27
2019-01-30T13:56:09.821Z,9.57
2019-01-30T13:58:37.089Z,5.97
2019-01-30T14:01:04.392Z,5.20
2019-01-30T14:03:31.699Z,6.00
2019-01-30T14:05:59.018Z,6.10
2019-01-30T14:08:26.509Z,4.70
2019-01-30T14:10:53.850Z,5.37
2019-01-30T14:13:21.223Z,4.43
2019-01-30T14:15:48.519Z,6.60
2019-01-30T14:18:15.953Z,3.20
2019-01-30T14:20:43.481Z,3.57
2019-01-30T14:23:10.721Z,3.40
2019-01-30T14:25:38.067Z,3.50
2019-01-30T14:28:05.329Z,3.00
2019-01-30T14:30:33.977Z,3.20
2019-01-30T14:33:01.397Z,2.77
2019-01-30T14:35:29.488Z,3.10
2019-01-30T14:37:56.804Z,3.50
2019-01-30T14:40:24.140Z,3.13
2019-01-30T14:42:51.743Z,3.50
2019-01-30T14:45:20.001Z,3.73
2019-01-30T14:47:50.642Z,3.10
2019-01-30T14:50:18.889Z,3.10
2019-01-30T14:52:46.206Z,3.20
2019-01-30T14:55:15.007Z,3.30
2019-01-30T14:57:42.282Z,2.97
2019-01-30T15:00:11.297Z,2.83
2019-01-30T15:02:38.651Z,3.50
2019-01-30T15:05:07.730Z,2.80
2019-01-30T15:07:35.107Z,2.53
2019-01-30T15:10:02.454Z,2.57
2019-01-30T15:12:29.732Z,2.60
2019-01-30T15:14:57.040Z,3.07
2019-01-30T15:17:24.322Z,3.83
2019-01-30T15:19:51.841Z,3.13
2019-01-30T15:22:19.158Z,3.93
2019-01-30T15:24:46.583Z,3.70
2019-01-30T15:27:14.128Z,3.63
2019-01-30T15:29:41.443Z,4.60
2019-01-30T15:32:08.957Z,3.90
2019-01-30T15:34:36.228Z,3.77
2019-01-30T15:37:03.501Z,4.30
2019-01-30T15:39:31.018Z,4.70
2019-01-30T15:41:58.291Z,4.50
2019-01-30T15:44:25.536Z,4.50
2019-01-30T15:46:52.805Z,6.73
2019-01-30T15:49:20.070Z,4.63
2019-01-30T15:51:47.346Z,5.00
2019-01-30T15:54:14.665Z,5.77
2019-01-30T15:56:41.913Z,4.87
2019-01-30T15:59:09.254Z,5.50
2019-01-30T16:01:36.518Z,6.03
2019-01-30T16:04:06.116Z,5.87
2019-01-30T16:06:33.105Z,5.57
2019-01-30T16:09:00.442Z,5.23
2019-01-30T16:11:27.722Z,5.73
2019-01-30T16:13:54.994Z,4.60
2019-01-30T16:16:22.241Z,5.20
2019-01-30T16:18:49.783Z,5.33
2019-01-30T16:21:17.282Z,5.40
2019-01-30T16:23:44.630Z,5.33
2019-01-30T16:26:12.156Z,5.27
2019-01-30T16:28:39.433Z,5.23
2019-01-30T16:31:08.895Z,5.47
2019-01-30T16:33:36.307Z,5.20
2019-01-30T16:36:03.757Z,6.33
2019-01-30T16:38:30.998Z,5.77
2019-01-30T16:40:58.272Z,6.00
2019-01-30T16:43:25.534Z,5.13
2019-01-30T16:45:52.805Z,4.73
2019-01-30T16:48:20.300Z,7.03
2019-01-30T16:50:47.573Z,5.67
2019-01-30T16:53:14.816Z,4.33
2019-01-30T16:55:42.154Z,4.63
2019-01-30T16:58:09.772Z,6.60
2019-01-30T17:00:37.584Z,5.20
2019-01-30T17:03:06.166Z,5.43
2019-01-30T17:05:33.583Z,5.77
2019-01-30T17:08:01.086Z,5.73
2019-01-30T17:10:28.668Z,5.57
2019-01-30T17:12:56.206Z,5.50
2019-01-30T17:15:25.287Z,5.87
2019-01-30T17:17:52.525Z,7.27
2019-01-30T17:20:20.770Z,5.30
2019-01-30T17:22:48.283Z,5.60
2019-01-30T17:25:16.022Z,5.33
2019-01-30T17:27:43.347Z,5.43
2019-01-30T17:30:17.887Z,3.80
2019-01-30T17:32:45.427Z,4.20
2019-01-30T17:35:13.015Z,4.63
2019-01-30T17:37:40.559Z,3.90
2019-01-30T17:40:18.452Z,4.50
2019-01-30T17:42:45.773Z,4.33
2019-01-30T17:45:13.254Z,3.53
2019-01-30T17:47:40.555Z,5.90
2019-01-30T17:50:09.625Z,4.10
2019-01-30T17:52:37.218Z,4.43
2019-01-30T17:55:05.486Z,5.70
2019-01-30T17:57:32.746Z,4.47
2019-01-30T18:00:00.020Z,5.00
2019-01-30T18:02:27.510Z,4.40
2019-01-30T18:04:55.054Z,4.10
2019-01-30T18:07:22.505Z,3.80
2019-01-30T18:09:49.779Z,4.07
2019-01-30T18:12:17.018Z,4.20
2019-01-30T18:14:44.505Z,4.60
2019-01-30T18:17:11.850Z,4.57
2019-01-30T18:19:39.200Z,4.87
2019-01-30T18:22:06.485Z,8.80
2019-01-30T18:24:33.814Z,5.07
2019-01-30T18:27:01.087Z,5.23
2019-01-30T18:29:28.693Z,5.30
2019-01-30T18:31:56.232Z,5.33
2019-01-30T18:34:23.739Z,9.23
2019-01-30T18:36:51.280Z,5.50
2019-01-30T18:39:18.832Z,4.73
2019-01-30T18:41:46.346Z,5.13
2019-01-30T18:44:13.617Z,4.60
2019-01-30T18:46:41.114Z,5.33
2019-01-30T18:49:08.462Z,5.17
2019-01-30T18:51:35.705Z,5.67
2019-01-30T18:54:02.977Z,6.20
2019-01-30T18:56:30.490Z,5.60
2019-01-30T18:58:57.769Z,6.40
2019-01-30T19:01:25.006Z,5.53
2019-01-30T19:03:52.364Z,5.80
2019-01-30T19:06:19.895Z,6.08
2019-01-30T19:08:47.138Z,6.23
2019-01-30T19:11:14.674Z,6.23
2019-01-30T19:13:42.197Z,6.07
2019-01-30T19:16:09.552Z,5.70
2019-01-30T19:18:36.905Z,6.50
2019-01-30T19:21:04.626Z,6.43
2019-01-30T19:23:31.869Z,5.60
2019-01-30T19:25:59.322Z,5.33
2019-01-30T19:28:26.853Z,6.20
2019-01-30T19:30:54.089Z,6.50
2019-01-30T19:33:21.440Z,6.20
2019-01-30T19:35:49.020Z,6.90
2019-01-30T19:38:16.278Z,5.83
2019-01-30T19:40:43.554Z,6.13
2019-01-30T19:43:10.954Z,6.57
2019-01-30T19:45:38.233Z,5.30
2019-01-30T19:48:05.770Z,6.10
2019-01-30T19:50:33.091Z,5.33
2019-01-30T19:53:00.613Z,4.80
2019-01-30T19:55:27.955Z,4.43
2019-01-30T19:57:55.469Z,5.90
2019-01-30T20:00:23.923Z,6.60
2019-01-30T20:02:51.589Z,5.23
2019-01-30T20:05:18.893Z,4.97
2019-01-30T20:07:46.516Z,4.87
2019-01-30T20:10:15.301Z,4.63
2019-01-30T20:12:42.743Z,7.70
2019-01-30T20:15:10.527Z,5.67
2019-01-30T20:17:37.783Z,5.83
2019-01-30T20:20:12.987Z,5.70
2019-01-30T20:22:40.494Z,5.17
2019-01-30T20:25:12.289Z,4.67
2019-01-30T20:27:39.813Z,4.17
2019-01-30T20:30:08.599Z,5.40
2019-01-30T20:32:35.946Z,6.53
2019-01-30T20:35:04.094Z,5.53
2019-01-30T20:37:31.623Z,4.90
2019-01-30T20:39:58.895Z,3.80
2019-01-30T20:42:26.210Z,4.33
2019-01-30T20:44:53.454Z,5.20
2019-01-30T20:47:20.726Z,7.07
2019-01-30T20:49:50.631Z,6.60
2019-01-30T20:52:17.215Z,6.57
2019-01-30T20:54:44.771Z,5.13
2019-01-30T20:57:12.042Z,9.03
2019-01-30T20:59:39.291Z,4.90
2019-01-30T21:02:06.885Z,7.00
2019-01-30T21:04:34.150Z,5.37
2019-01-30T21:07:01.399Z,5.80
2019-01-30T21:09:28.923Z,5.77
2019-01-30T21:11:56.167Z,6.50
2019-01-30T21:14:23.438Z,5.53
2019-01-30T21:16:50.757Z,7.10
2019-01-30T21:19:18.038Z,7.10
2019-01-30T21:21:45.278Z,4.77
2019-01-30T21:24:12.786Z,8.20
2019-01-30T21:26:40.328Z,4.70
2019-01-30T21:29:07.597Z,4.47
2019-01-30T21:31:34.841Z,5.43
2019-01-30T21:34:02.461Z,5.83
2019-01-30T21:36:29.741Z,6.30
2019-01-30T21:38:56.989Z,8.83
2019-01-30T21:41:24.234Z,5.97
2019-01-30T21:43:51.505Z,4.87
2019-01-30T21:46:18.757Z,5.30
2019-01-30T21:48:46.021Z,7.57
2019-01-30T21:51:13.266Z,4.10
2019-01-30T21:53:40.547Z,5.23
2019-01-30T21:56:09.852Z,6.03
2019-01-30T21:58:36.749Z,4.40
2019-01-30T22:01:04.185Z,4.33
2019-01-30T22:03:31.521Z,6.83
2019-01-30T22:05:58.799Z,5.33
2019-01-30T22:08:26.042Z,4.10
2019-01-30T22:10:53.574Z,5.80
2019-01-30T22:13:20.823Z,4.33
2019-01-30T22:15:48.250Z,7.37
2019-01-30T22:18:15.582Z,4.93
2019-01-30T22:20:42.821Z,5.03
2019-01-30T22:23:10.099Z,6.10
2019-01-30T22:25:37.348Z,3.70
2019-01-30T22:28:04.859Z,5.97
2019-01-30T22:30:32.901Z,8.03
2019-01-30T22:33:00.221Z,5.23
2019-01-30T22:35:27.648Z,5.40
2019-01-30T22:37:55.160Z,5.90
2019-01-30T22:40:22.434Z,5.10
2019-01-30T22:42:49.790Z,6.10
2019-01-30T22:45:18.198Z,4.67
2019-01-30T22:47:45.473Z,4.63
2019-01-30T22:50:13.874Z,3.80
2019-01-30T22:52:41.154Z,6.20
2019-01-30T22:55:09.958Z,6.37
2019-01-30T22:57:37.481Z,6.77
2019-01-30T23:00:06.429Z,9.30
2019-01-30T23:02:33.680Z,5.27
2019-01-30T23:05:02.487Z,7.70
2019-01-30T23:07:31.535Z,5.53
2019-01-30T23:10:16.633Z,2.87
2019-01-30T23:12:48.471Z,6.17
2019-01-30T23:15:17.266Z,3.63
2019-01-30T23:17:48.835Z,5.40
2019-01-30T23:20:17.726Z,8.30
2019-01-30T23:23:01.562Z,4.80
2019-01-30T23:25:42.434Z,2.80
2019-01-30T23:28:11.210Z,7.83
2019-01-30T23:30:48.787Z,6.70
2019-01-30T23:33:29.653Z,3.13
2019-01-30T23:36:01.422Z,4.20
2019-01-30T23:38:34.345Z,4.00
2019-01-30T23:41:01.261Z,5.10
2019-01-30T23:43:30.036Z,6.10
2019-01-30T23:46:01.486Z,4.60
2019-01-30T23:48:33.201Z,4.40
2019-01-30T23:51:01.988Z,4.10
2019-01-30T23:53:36.439Z,3.77
2019-01-30T23:56:14.121Z,6.17
2019-01-30T23:58:42.929Z,4.17
